Flugplatz Ansbach-Petersdorf

Für EDQF sind keine METAR/TAF Berichte vorhanden.
Es werden die Flugwettermeldungen vom Flugplatz Ansbach Army Heliport in 6 km Entfernung angezeigt.

Bericht für ETEB

vom 25.09. um 19:26 UTC

Wind 6 kt aus 210°

Sichtweite 10 km oder mehr

aufgelockert bewölkt in 2700 ft

bedeckt in 3700 ft

Temperatur 9.0°C

Taupunkt 8.0°C

Luftfeuchtigkeit 93%

Luftdruck 1000 hPa

ETEB 251926Z AUTO 21006KT 9999 SCT027 OVC037 09/08 A2953 RMK AO2 SLP017 $

Prognose für ETEB

vom 25.09. um 09:55 UTC

Zwischen 09:00 UTC und 18:00 UTC

Wind 10 kt aus 250°

Sichtweite 10 km oder mehr

aufgebrochene Bewölkung in 2000 ft

aufgebrochene Bewölkung in 3000 ft


Zwischen 18:00 und 19:00 UTC übergehend zu

Wind 10 kt aus 240° in Böen 18 kt

Sichtweite 10 km oder mehr

aufgebrochene Bewölkung in 2500 ft

bedeckt in 4000 ft


Am 26.09. zwischen 03:00 und 04:00 UTC übergehend zu

Wind 6 kt aus 250°

Sichtweite 10 km oder mehr

bedeckt in 900 ft


Am 26.09. zwischen 10:00 und 11:00 UTC übergehend zu

Wind 9 kt aus 300°

Sichtweite 10 km oder mehr

schwacher Regen

aufgebrochene Bewölkung in 1500 ft

aufgebrochene Bewölkung in 2500 ft

TAF AMD ETEB 250955Z 2509/2615 25010KT 9999 BKN020 BKN030 QNH2949INS BECMG 2518/2519 24010G18KT 9999 BKN025 OVC040 QNH2946INS BECMG 2603/2604 25006KT 9999 OVC009 QNH2944INS BECMG 2610/2611 30009KT 9999 -RA BKN015 BKN025 QNH2942INS TX13/2513Z TN06/2604Z LAST NO AMDS AFT 2516 NEXT 2809
Impressum